PWSweather.com
Personal Weather Stations
Station Observations
719732
Ponferrada, PonferradaES 24411

PonferradaPonferradaES 24411

Lat: 42.5728, Lon: -6.6425

Elevation: 1676

Station Type: PCE-FWS 20 con garita Ambient Weather SRS100LX

www.meteo.spyfly.es

High Low Average
Temperature 57.2°F14.0°C 32.5°F0.3°C 44.7°F7.1°C
Dew Point 40.4°F4.7°C 29.0°F-1.7°C 35.7°F2.1°C
Winds 13.6 mph 21.9 kmh Calm Calm 4.0 mph SW6.4 kmh SW
Wind Gusts 21.3 mph34.3 kmh 0.7 mph1.1 kmh 9.0 mph14.5 kmh
Humidity 96% 39% 72%
Pressure 30.50 in1032.8 mb 30.34 in1027.4 mb -
Precipitation 0.00 in0.0 mm - -
Hour Temp Dew Point Humidity Winds Wind Gusts Pressure Precip Precip Rate Daily Precip Total
12:00 AM 44.2°F6.8°C 38.8°F3.8°C 81% 6.9 mph WNW11.1 kmh WNW 11.4 mph18.3 kmh 30.34 in1027.4 mb 0.00 in0.0 mm 0.00 in0.0 mm 0.00 in0.0 mm
12:05 AM 44.2°F6.8°C 38.5°F3.6°C 80% 6.9 mph NW11.1 kmh NW 11.4 mph18.3 kmh 30.34 in1027.4 mb 0.00 in0.0 mm 0.00 in0.0 mm 0.00 in0.0 mm
12:10 AM 44.2°F6.8°C 38.1°F3.4°C 79% 7.6 mph NW12.2 kmh NW 11.4 mph18.3 kmh 30.34 in1027.4 mb 0.00 in0.0 mm 0.00 in0.0 mm 0.00 in0.0 mm
12:15 AM 44.1°F6.7°C 37.6°F3.1°C 78% 5.4 mph NW8.7 kmh NW 11.4 mph18.3 kmh 30.35 in1027.8 mb 0.00 in0.0 mm 0.00 in0.0 mm 0.00 in0.0 mm
12:20 AM 43.9°F6.6°C 37.1°F2.8°C 77% 5.4 mph NW8.7 kmh NW 9.8 mph15.8 kmh 30.34 in1027.4 mb 0.00 in0.0 mm 0.00 in0.0 mm 0.00 in0.0 mm
12:25 AM 43.7°F6.5°C 37.0°F2.8°C 77% 4.5 mph NW7.2 kmh NW 6.9 mph11.1 kmh 30.35 in1027.8 mb 0.00 in0.0 mm 0.00 in0.0 mm 0.00 in0.0 mm
12:30 AM 43.5°F6.4°C 36.8°F2.7°C 77% 3.1 mph NW5.0 kmh NW 6.9 mph11.1 kmh 30.34 in1027.4 mb 0.00 in0.0 mm 0.00 in0.0 mm 0.00 in0.0 mm
12:35 AM 43.3°F6.3°C 36.6°F2.6°C 77% 2.2 mph NW3.5 kmh NW 5.4 mph8.7 kmh 30.35 in1027.8 mb 0.00 in0.0 mm 0.00 in0.0 mm 0.00 in0.0 mm
12:40 AM 42.8°F6.0°C 36.1°F2.3°C 77% 2.2 mph NW3.5 kmh NW 4.5 mph7.2 kmh 30.34 in1027.4 mb 0.00 in0.0 mm 0.00 in0.0 mm 0.00 in0.0 mm
12:45 AM 42.4°F5.8°C 36.1°F2.3°C 78% 2.2 mph WNW3.5 kmh WNW 5.4 mph8.7 kmh 30.35 in1027.8 mb 0.00 in0.0 mm 0.00 in0.0 mm 0.00 in0.0 mm
12:50 AM 42.1°F5.6°C 35.7°F2.1°C 78% Calm Calm 5.4 mph8.7 kmh 30.35 in1027.8 mb 0.00 in0.0 mm 0.00 in0.0 mm 0.00 in0.0 mm
12:55 AM 42.1°F5.6°C 35.7°F2.1°C 78% 1.6 mph WSW2.6 kmh WSW 5.4 mph8.7 kmh 30.35 in1027.8 mb 0.00 in0.0 mm 0.00 in0.0 mm 0.00 in0.0 mm
01:00 AM 42.1°F5.6°C 35.7°F2.1°C 78% 1.6 mph WSW2.6 kmh WSW 3.8 mph6.1 kmh 30.35 in1027.8 mb 0.00 in0.0 mm 0.00 in0.0 mm 0.00 in0.0 mm
01:05 AM 41.7°F5.4°C 35.4°F1.9°C 78% 0.7 mph WNW1.1 kmh WNW 3.8 mph6.1 kmh 30.35 in1027.8 mb 0.00 in0.0 mm 0.00 in0.0 mm 0.00 in0.0 mm
01:10 AM 41.4°F5.2°C 35.0°F1.7°C 78% 3.8 mph NW6.1 kmh NW 5.4 mph8.7 kmh 30.35 in1027.8 mb 0.00 in0.0 mm 0.00 in0.0 mm 0.00 in0.0 mm
01:15 AM 41.2°F5.1°C 34.9°F1.6°C 78% 2.2 mph WNW3.5 kmh WNW 7.6 mph12.2 kmh 30.35 in1027.8 mb 0.00 in0.0 mm 0.00 in0.0 mm 0.00 in0.0 mm
01:20 AM 41.2°F5.1°C 35.2°F1.8°C 79% 1.6 mph WNW2.6 kmh WNW 7.6 mph12.2 kmh 30.35 in1027.8 mb 0.00 in0.0 mm 0.00 in0.0 mm 0.00 in0.0 mm
01:25 AM 40.8°F4.9°C 35.1°F1.7°C 80% 0.7 mph W1.1 kmh W 4.5 mph7.2 kmh 30.34 in1027.4 mb 0.00 in0.0 mm 0.00 in0.0 mm 0.00 in0.0 mm
01:30 AM 40.6°F4.8°C 35.0°F1.7°C 80% 0.7 mph SW1.1 kmh SW 4.5 mph7.2 kmh 30.35 in1027.8 mb 0.00 in0.0 mm 0.00 in0.0 mm 0.00 in0.0 mm
01:35 AM 40.3°F4.6°C 34.6°F1.4°C 80% 0.7 mph SSW1.1 kmh SSW 2.2 mph3.5 kmh 30.35 in1027.8 mb 0.00 in0.0 mm 0.00 in0.0 mm 0.00 in0.0 mm
01:40 AM 40.3°F4.6°C 34.9°F1.6°C 81% 0.7 mph SSW1.1 kmh SSW 2.2 mph3.5 kmh 30.35 in1027.8 mb 0.00 in0.0 mm 0.00 in0.0 mm 0.00 in0.0 mm
01:45 AM 39.9°F4.4°C 34.6°F1.4°C 81% Calm Calm 2.2 mph3.5 kmh 30.36 in1028.1 mb 0.00 in0.0 mm 0.00 in0.0 mm 0.00 in0.0 mm
01:50 AM 39.7°F4.3°C 34.4°F1.3°C 81% 1.6 mph SW2.6 kmh SW 3.1 mph5.0 kmh 30.35 in1027.8 mb 0.00 in0.0 mm 0.00 in0.0 mm 0.00 in0.0 mm
01:55 AM 39.6°F4.2°C 34.2°F1.2°C 81% 1.6 mph S2.6 kmh S 3.8 mph6.1 kmh 30.35 in1027.8 mb 0.00 in0.0 mm 0.00 in0.0 mm 0.00 in0.0 mm
02:00 AM 39.4°F4.1°C 34.0°F1.1°C 81% 2.2 mph SSW3.5 kmh SSW 4.5 mph7.2 kmh 30.35 in1027.8 mb 0.00 in0.0 mm 0.00 in0.0 mm 0.00 in0.0 mm
02:05 AM 39.4°F4.1°C 34.0°F1.1°C 81% 3.1 mph SW5.0 kmh SW 4.5 mph7.2 kmh 30.36 in1028.1 mb 0.00 in0.0 mm 0.00 in0.0 mm 0.00 in0.0 mm
02:10 AM 39.4°F4.1°C 34.0°F1.1°C 81% 1.6 mph SW2.6 kmh SW 5.4 mph8.7 kmh 30.36 in1028.1 mb 0.00 in0.0 mm 0.00 in0.0 mm 0.00 in0.0 mm
02:15 AM 39.4°F4.1°C 34.0°F1.1°C 81% 2.2 mph SW3.5 kmh SW 5.4 mph8.7 kmh 30.36 in1028.1 mb 0.00 in0.0 mm 0.00 in0.0 mm 0.00 in0.0 mm
02:20 AM 39.2°F4.0°C 33.9°F1.1°C 81% 2.2 mph SW3.5 kmh SW 4.5 mph7.2 kmh 30.36 in1028.1 mb 0.00 in0.0 mm 0.00 in0.0 mm 0.00 in0.0 mm
02:25 AM 39.2°F4.0°C 33.6°F0.9°C 80% Calm Calm 4.5 mph7.2 kmh 30.36 in1028.1 mb 0.00 in0.0 mm 0.00 in0.0 mm 0.00 in0.0 mm
02:30 AM 39.2°F4.0°C 33.6°F0.9°C 80% 2.2 mph SW3.5 kmh SW 4.5 mph7.2 kmh 30.36 in1028.1 mb 0.00 in0.0 mm 0.00 in0.0 mm 0.00 in0.0 mm
02:35 AM 39.2°F4.0°C 33.6°F0.9°C 80% 1.6 mph SW2.6 kmh SW 4.5 mph7.2 kmh 30.36 in1028.1 mb 0.00 in0.0 mm 0.00 in0.0 mm 0.00 in0.0 mm
02:40 AM 39.2°F4.0°C 33.6°F0.9°C 80% 1.6 mph SW2.6 kmh SW 3.8 mph6.1 kmh 30.36 in1028.1 mb 0.00 in0.0 mm 0.00 in0.0 mm 0.00 in0.0 mm
02:45 AM 39.2°F4.0°C 33.6°F0.9°C 80% 0.7 mph SW1.1 kmh SW 3.8 mph6.1 kmh 30.37 in1028.4 mb 0.00 in0.0 mm 0.00 in0.0 mm 0.00 in0.0 mm
02:50 AM 39.2°F4.0°C 33.6°F0.9°C 80% 0.7 mph SW1.1 kmh SW 3.1 mph5.0 kmh 30.37 in1028.4 mb 0.00 in0.0 mm 0.00 in0.0 mm 0.00 in0.0 mm
02:55 AM 39.2°F4.0°C 33.6°F0.9°C 80% 0.7 mph WSW1.1 kmh WSW 3.1 mph5.0 kmh 30.37 in1028.4 mb 0.00 in0.0 mm 0.00 in0.0 mm 0.00 in0.0 mm
03:00 AM 38.8°F3.8°C 33.5°F0.8°C 81% Calm Calm 2.2 mph3.5 kmh 30.37 in1028.4 mb 0.00 in0.0 mm 0.00 in0.0 mm 0.00 in0.0 mm
03:05 AM 38.5°F3.6°C 33.2°F0.7°C 81% 0.7 mph W1.1 kmh W 2.2 mph3.5 kmh 30.37 in1028.4 mb 0.00 in0.0 mm 0.00 in0.0 mm 0.00 in0.0 mm
03:10 AM 38.3°F3.5°C 33.0°F0.6°C 81% 1.6 mph WSW2.6 kmh WSW 3.1 mph5.0 kmh 30.37 in1028.4 mb 0.00 in0.0 mm 0.00 in0.0 mm 0.00 in0.0 mm
03:15 AM 37.9°F3.3°C 32.9°F0.5°C 82% 1.6 mph W2.6 kmh W 3.1 mph5.0 kmh 30.37 in1028.4 mb 0.00 in0.0 mm 0.00 in0.0 mm 0.00 in0.0 mm
03:20 AM 37.9°F3.3°C 33.2°F0.7°C 83% 3.8 mph W6.1 kmh W 6.9 mph11.1 kmh 30.37 in1028.4 mb 0.00 in0.0 mm 0.00 in0.0 mm 0.00 in0.0 mm
03:25 AM 37.9°F3.3°C 33.2°F0.7°C 83% 0.7 mph WNW1.1 kmh WNW 6.9 mph11.1 kmh 30.37 in1028.4 mb 0.00 in0.0 mm 0.00 in0.0 mm 0.00 in0.0 mm
03:30 AM 37.4°F3.0°C 32.7°F0.4°C 83% 3.1 mph W5.0 kmh W 4.5 mph7.2 kmh 30.37 in1028.4 mb 0.00 in0.0 mm 0.00 in0.0 mm 0.00 in0.0 mm
03:35 AM 37.6°F3.1°C 33.2°F0.7°C 84% 1.6 mph SW2.6 kmh SW 4.5 mph7.2 kmh 30.37 in1028.4 mb 0.00 in0.0 mm 0.00 in0.0 mm 0.00 in0.0 mm
03:40 AM 38.1°F3.4°C 33.7°F0.9°C 84% 2.2 mph WSW3.5 kmh WSW 4.5 mph7.2 kmh 30.37 in1028.4 mb 0.00 in0.0 mm 0.00 in0.0 mm 0.00 in0.0 mm
03:50 AM 37.2°F2.9°C 31.3°F-0.4°C 79% 0.7 mph N1.1 kmh N 5.4 mph8.7 kmh 30.36 in1028.1 mb 0.00 in0.0 mm 0.00 in0.0 mm 0.00 in0.0 mm
03:55 AM 36.5°F2.5°C 30.6°F-0.8°C 79% 1.6 mph NNW2.6 kmh NNW 2.2 mph3.5 kmh 30.37 in1028.4 mb 0.00 in0.0 mm 0.00 in0.0 mm 0.00 in0.0 mm
04:00 AM 36.0°F2.2°C 30.1°F-1.1°C 79% 0.7 mph N1.1 kmh N 2.2 mph3.5 kmh 30.37 in1028.4 mb 0.00 in0.0 mm 0.00 in0.0 mm 0.00 in0.0 mm
04:05 AM 36.0°F2.2°C 30.1°F-1.1°C 79% 0.7 mph N1.1 kmh N 2.2 mph3.5 kmh 30.36 in1028.1 mb 0.00 in0.0 mm 0.00 in0.0 mm 0.00 in0.0 mm
04:10 AM 34.7°F1.5°C 29.8°F-1.2°C 82% 1.6 mph NE2.6 kmh NE 2.2 mph3.5 kmh 30.37 in1028.4 mb 0.00 in0.0 mm 0.00 in0.0 mm 0.00 in0.0 mm
04:15 AM 34.2°F1.2°C 29.3°F-1.5°C 82% 0.7 mph E1.1 kmh E 3.8 mph6.1 kmh 30.37 in1028.4 mb 0.00 in0.0 mm 0.00 in0.0 mm 0.00 in0.0 mm
04:20 AM 34.0°F1.1°C 29.4°F-1.4°C 83% Calm Calm 3.8 mph6.1 kmh 30.37 in1028.4 mb 0.00 in0.0 mm 0.00 in0.0 mm 0.00 in0.0 mm
04:25 AM 33.8°F1.0°C 29.2°F-1.6°C 83% Calm Calm 1.6 mph2.6 kmh 30.37 in1028.4 mb 0.00 in0.0 mm 0.00 in0.0 mm 0.00 in0.0 mm
04:30 AM 33.6°F0.9°C 29.6°F-1.3°C 85% 1.6 mph N2.6 kmh N 4.5 mph7.2 kmh 30.37 in1028.4 mb 0.00 in0.0 mm 0.00 in0.0 mm 0.00 in0.0 mm
04:35 AM 33.4°F0.8°C 29.4°F-1.4°C 85% 1.6 mph N2.6 kmh N 4.5 mph7.2 kmh 30.36 in1028.1 mb 0.00 in0.0 mm 0.00 in0.0 mm 0.00 in0.0 mm
04:40 AM 33.3°F0.7°C 29.3°F-1.5°C 85% Calm Calm 3.1 mph5.0 kmh 30.36 in1028.1 mb 0.00 in0.0 mm 0.00 in0.0 mm 0.00 in0.0 mm
04:45 AM 33.1°F0.6°C 29.4°F-1.4°C 86% 1.6 mph NNW2.6 kmh NNW 3.1 mph5.0 kmh 30.36 in1028.1 mb 0.00 in0.0 mm 0.00 in0.0 mm 0.00 in0.0 mm
04:50 AM 32.9°F0.5°C 29.2°F-1.6°C 86% 2.2 mph NNW3.5 kmh NNW 3.1 mph5.0 kmh 30.36 in1028.1 mb 0.00 in0.0 mm 0.00 in0.0 mm 0.00 in0.0 mm
04:55 AM 32.7°F0.4°C 29.0°F-1.7°C 86% Calm Calm 3.1 mph5.0 kmh 30.36 in1028.1 mb 0.00 in0.0 mm 0.00 in0.0 mm 0.00 in0.0 mm
05:00 AM 32.7°F0.4°C 29.3°F-1.5°C 87% Calm Calm 3.1 mph5.0 kmh 30.36 in1028.1 mb 0.00 in0.0 mm 0.00 in0.0 mm 0.00 in0.0 mm
05:05 AM 32.5°F0.3°C 29.1°F-1.6°C 87% Calm Calm 0.7 mph1.1 kmh 30.36 in1028.1 mb 0.00 in0.0 mm 0.00 in0.0 mm 0.00 in0.0 mm
05:10 AM 32.5°F0.3°C 29.4°F-1.4°C 88% 1.6 mph E2.6 kmh E 2.2 mph3.5 kmh 30.35 in1027.8 mb 0.00 in0.0 mm 0.00 in0.0 mm 0.00 in0.0 mm
05:15 AM 32.7°F0.4°C 29.6°F-1.3°C 88% 2.2 mph E3.5 kmh E 3.8 mph6.1 kmh 30.36 in1028.1 mb 0.00 in0.0 mm 0.00 in0.0 mm 0.00 in0.0 mm
05:20 AM 32.7°F0.4°C 29.8°F-1.2°C 89% 1.6 mph ENE2.6 kmh ENE 3.8 mph6.1 kmh 30.36 in1028.1 mb 0.00 in0.0 mm 0.00 in0.0 mm 0.00 in0.0 mm
05:25 AM 32.9°F0.5°C 30.0°F-1.1°C 89% 1.6 mph NE2.6 kmh NE 3.8 mph6.1 kmh 30.36 in1028.1 mb 0.00 in0.0 mm 0.00 in0.0 mm 0.00 in0.0 mm
05:30 AM 33.1°F0.6°C 30.5°F-0.8°C 90% 1.6 mph NE2.6 kmh NE 4.5 mph7.2 kmh 30.36 in1028.1 mb 0.00 in0.0 mm 0.00 in0.0 mm 0.00 in0.0 mm
05:35 AM 33.1°F0.6°C 30.5°F-0.8°C 90% 1.6 mph NE2.6 kmh NE 4.5 mph7.2 kmh 30.36 in1028.1 mb 0.00 in0.0 mm 0.00 in0.0 mm 0.00 in0.0 mm
05:40 AM 33.3°F0.7°C 30.7°F-0.7°C 90% 0.7 mph NNE1.1 kmh NNE 3.8 mph6.1 kmh 30.36 in1028.1 mb 0.00 in0.0 mm 0.00 in0.0 mm 0.00 in0.0 mm
05:45 AM 33.3°F0.7°C 30.7°F-0.7°C 90% 0.7 mph NE1.1 kmh NE 3.1 mph5.0 kmh 30.36 in1028.1 mb 0.00 in0.0 mm 0.00 in0.0 mm 0.00 in0.0 mm
05:50 AM 33.4°F0.8°C 30.8°F-0.7°C 90% 0.7 mph NE1.1 kmh NE 3.1 mph5.0 kmh 30.36 in1028.1 mb 0.00 in0.0 mm 0.00 in0.0 mm 0.00 in0.0 mm
05:55 AM 33.4°F0.8°C 30.8°F-0.7°C 90% 0.7 mph NNE1.1 kmh NNE 3.1 mph5.0 kmh 30.36 in1028.1 mb 0.00 in0.0 mm 0.00 in0.0 mm 0.00 in0.0 mm
06:00 AM 33.4°F0.8°C 30.8°F-0.7°C 90% Calm Calm 3.1 mph5.0 kmh 30.36 in1028.1 mb 0.00 in0.0 mm 0.00 in0.0 mm 0.00 in0.0 mm
06:05 AM 33.4°F0.8°C 30.8°F-0.7°C 90% 1.6 mph NNW2.6 kmh NNW 2.2 mph3.5 kmh 30.36 in1028.1 mb 0.00 in0.0 mm 0.00 in0.0 mm 0.00 in0.0 mm
06:10 AM 33.6°F0.9°C 31.3°F-0.4°C 91% 0.7 mph NNW1.1 kmh NNW 3.1 mph5.0 kmh 30.37 in1028.4 mb 0.00 in0.0 mm 0.00 in0.0 mm 0.00 in0.0 mm
06:15 AM 33.8°F1.0°C 31.2°F-0.4°C 90% 0.7 mph NNE1.1 kmh NNE 3.1 mph5.0 kmh 30.37 in1028.4 mb 0.00 in0.0 mm 0.00 in0.0 mm 0.00 in0.0 mm
06:20 AM 33.8°F1.0°C 31.2°F-0.4°C 90% 0.7 mph N1.1 kmh N 3.1 mph5.0 kmh 30.37 in1028.4 mb 0.00 in0.0 mm 0.00 in0.0 mm 0.00 in0.0 mm
06:25 AM 33.8°F1.0°C 31.2°F-0.4°C 90% Calm Calm 1.6 mph2.6 kmh 30.37 in1028.4 mb 0.00 in0.0 mm 0.00 in0.0 mm 0.00 in0.0 mm
06:30 AM 33.8°F1.0°C 31.2°F-0.4°C 90% Calm Calm 0.7 mph1.1 kmh 30.38 in1028.8 mb 0.00 in0.0 mm 0.00 in0.0 mm 0.00 in0.0 mm
06:35 AM 33.8°F1.0°C 31.2°F-0.4°C 90% Calm Calm 0.7 mph1.1 kmh 30.38 in1028.8 mb 0.00 in0.0 mm 0.00 in0.0 mm 0.00 in0.0 mm
06:40 AM 34.0°F1.1°C 31.6°F-0.2°C 91% 2.2 mph NE3.5 kmh NE 3.8 mph6.1 kmh 30.38 in1028.8 mb 0.00 in0.0 mm 0.00 in0.0 mm 0.00 in0.0 mm
06:45 AM 34.3°F1.3°C 32.0°F0.0°C 91% 3.1 mph E5.0 kmh E 3.8 mph6.1 kmh 30.38 in1028.8 mb 0.00 in0.0 mm 0.00 in0.0 mm 0.00 in0.0 mm
06:50 AM 34.3°F1.3°C 32.0°F0.0°C 91% 0.7 mph ENE1.1 kmh ENE 3.8 mph6.1 kmh 30.38 in1028.8 mb 0.00 in0.0 mm 0.00 in0.0 mm 0.00 in0.0 mm
06:55 AM 34.3°F1.3°C 32.0°F0.0°C 91% 0.7 mph NE1.1 kmh NE 3.1 mph5.0 kmh 30.38 in1028.8 mb 0.00 in0.0 mm 0.00 in0.0 mm 0.00 in0.0 mm
07:00 AM 34.3°F1.3°C 32.0°F0.0°C 91% 1.6 mph NNW2.6 kmh NNW 3.1 mph5.0 kmh 30.38 in1028.8 mb 0.00 in0.0 mm 0.00 in0.0 mm 0.00 in0.0 mm
07:05 AM 34.3°F1.3°C 32.0°F0.0°C 91% 0.7 mph WNW1.1 kmh WNW 5.4 mph8.7 kmh 30.38 in1028.8 mb 0.00 in0.0 mm 0.00 in0.0 mm 0.00 in0.0 mm
07:10 AM 34.7°F1.5°C 32.6°F0.3°C 92% Calm Calm 5.4 mph8.7 kmh 30.38 in1028.8 mb 0.00 in0.0 mm 0.00 in0.0 mm 0.00 in0.0 mm
07:15 AM 35.1°F1.7°C 33.0°F0.6°C 92% 0.7 mph NW1.1 kmh NW 3.8 mph6.1 kmh 30.37 in1028.4 mb 0.00 in0.0 mm 0.00 in0.0 mm 0.00 in0.0 mm
07:20 AM 35.4°F1.9°C 33.3°F0.7°C 92% 1.6 mph WSW2.6 kmh WSW 5.4 mph8.7 kmh 30.37 in1028.4 mb 0.00 in0.0 mm 0.00 in0.0 mm 0.00 in0.0 mm
07:25 AM 36.7°F2.6°C 34.6°F1.4°C 92% 3.1 mph WSW5.0 kmh WSW 7.6 mph12.2 kmh 30.38 in1028.8 mb 0.00 in0.0 mm 0.00 in0.0 mm 0.00 in0.0 mm
07:30 AM 37.8°F3.2°C 36.7°F2.6°C 96% 3.8 mph WSW6.1 kmh WSW 7.6 mph12.2 kmh 30.37 in1028.4 mb 0.00 in0.0 mm 0.00 in0.0 mm 0.00 in0.0 mm
07:35 AM 38.7°F3.7°C 37.6°F3.1°C 96% 2.2 mph SW3.5 kmh SW 6.0 mph9.7 kmh 30.37 in1028.4 mb 0.00 in0.0 mm 0.00 in0.0 mm 0.00 in0.0 mm
07:40 AM 39.4°F4.1°C 37.8°F3.2°C 94% 2.2 mph SW3.5 kmh SW 5.4 mph8.7 kmh 30.37 in1028.4 mb 0.00 in0.0 mm 0.00 in0.0 mm 0.00 in0.0 mm
07:45 AM 39.7°F4.3°C 37.9°F3.3°C 93% 3.1 mph SW5.0 kmh SW 5.4 mph8.7 kmh 30.37 in1028.4 mb 0.00 in0.0 mm 0.00 in0.0 mm 0.00 in0.0 mm
07:50 AM 39.9°F4.4°C 37.5°F3.1°C 91% 4.5 mph SW7.2 kmh SW 6.9 mph11.1 kmh 30.38 in1028.8 mb 0.00 in0.0 mm 0.00 in0.0 mm 0.00 in0.0 mm
07:55 AM 40.1°F4.5°C 37.4°F3.0°C 90% 2.2 mph WSW3.5 kmh WSW 6.9 mph11.1 kmh 30.38 in1028.8 mb 0.00 in0.0 mm 0.00 in0.0 mm 0.00 in0.0 mm
08:00 AM 39.6°F4.2°C 36.6°F2.6°C 89% 1.6 mph NW2.6 kmh NW 6.9 mph11.1 kmh 30.38 in1028.8 mb 0.00 in0.0 mm 0.00 in0.0 mm 0.00 in0.0 mm
08:05 AM 38.8°F3.8°C 35.9°F2.2°C 89% 0.7 mph N1.1 kmh N 3.8 mph6.1 kmh 30.38 in1028.8 mb 0.00 in0.0 mm 0.00 in0.0 mm 0.00 in0.0 mm
08:10 AM 38.7°F3.7°C 35.7°F2.1°C 89% 2.2 mph W3.5 kmh W 5.4 mph8.7 kmh 30.38 in1028.8 mb 0.00 in0.0 mm 0.00 in0.0 mm 0.00 in0.0 mm
08:15 AM 39.0°F3.9°C 36.1°F2.3°C 89% 3.1 mph WSW5.0 kmh WSW 6.0 mph9.7 kmh 30.38 in1028.8 mb 0.00 in0.0 mm 0.00 in0.0 mm 0.00 in0.0 mm
08:20 AM 39.7°F4.3°C 36.5°F2.5°C 88% 3.8 mph W6.1 kmh W 6.0 mph9.7 kmh 30.38 in1028.8 mb 0.00 in0.0 mm 0.00 in0.0 mm 0.00 in0.0 mm
08:25 AM 40.5°F4.7°C 37.2°F2.9°C 88% 1.6 mph WNW2.6 kmh WNW 5.4 mph8.7 kmh 30.38 in1028.8 mb 0.00 in0.0 mm 0.00 in0.0 mm 0.00 in0.0 mm
08:30 AM 41.0°F5.0°C 37.4°F3.0°C 87% 1.6 mph W2.6 kmh W 5.4 mph8.7 kmh 30.39 in1029.1 mb 0.00 in0.0 mm 0.00 in0.0 mm 0.00 in0.0 mm
08:35 AM 41.4°F5.2°C 37.5°F3.1°C 86% 1.6 mph WSW2.6 kmh WSW 5.4 mph8.7 kmh 30.38 in1028.8 mb 0.00 in0.0 mm 0.00 in0.0 mm 0.00 in0.0 mm
08:40 AM 42.1°F5.6°C 37.9°F3.3°C 85% 3.1 mph WSW5.0 kmh WSW 5.4 mph8.7 kmh 30.39 in1029.1 mb 0.00 in0.0 mm 0.00 in0.0 mm 0.00 in0.0 mm
08:45 AM 42.1°F5.6°C 37.6°F3.1°C 84% 5.4 mph SW8.7 kmh SW 8.3 mph13.4 kmh 30.39 in1029.1 mb 0.00 in0.0 mm 0.00 in0.0 mm 0.00 in0.0 mm
08:50 AM 42.1°F5.6°C 37.3°F2.9°C 83% 3.1 mph S5.0 kmh S 8.3 mph13.4 kmh 30.39 in1029.1 mb 0.00 in0.0 mm 0.00 in0.0 mm 0.00 in0.0 mm
08:55 AM 42.1°F5.6°C 37.3°F2.9°C 83% 3.1 mph SSE5.0 kmh SSE 9.2 mph14.8 kmh 30.39 in1029.1 mb 0.00 in0.0 mm 0.00 in0.0 mm 0.00 in0.0 mm
09:00 AM 42.1°F5.6°C 37.3°F2.9°C 83% 3.1 mph SW5.0 kmh SW 9.2 mph14.8 kmh 30.39 in1029.1 mb 0.00 in0.0 mm 0.00 in0.0 mm 0.00 in0.0 mm
09:05 AM 42.4°F5.8°C 37.3°F2.9°C 82% 0.7 mph SW1.1 kmh SW 9.2 mph14.8 kmh 30.39 in1029.1 mb 0.00 in0.0 mm 0.00 in0.0 mm 0.00 in0.0 mm
09:10 AM 43.0°F6.1°C 37.6°F3.1°C 81% 2.2 mph WSW3.5 kmh WSW 9.8 mph15.8 kmh 30.39 in1029.1 mb 0.00 in0.0 mm 0.00 in0.0 mm 0.00 in0.0 mm
09:15 AM 43.7°F6.5°C 37.9°F3.3°C 80% 3.1 mph WSW5.0 kmh WSW 9.8 mph15.8 kmh 30.39 in1029.1 mb 0.00 in0.0 mm 0.00 in0.0 mm 0.00 in0.0 mm
09:20 AM 44.2°F6.8°C 38.1°F3.4°C 79% 2.2 mph SW3.5 kmh SW 9.8 mph15.8 kmh 30.39 in1029.1 mb 0.00 in0.0 mm 0.00 in0.0 mm 0.00 in0.0 mm
09:25 AM 45.1°F7.3°C 38.0°F3.3°C 76% 4.5 mph SW7.2 kmh SW 10.7 mph17.2 kmh 30.40 in1029.5 mb 0.00 in0.0 mm 0.00 in0.0 mm 0.00 in0.0 mm
09:30 AM 45.3°F7.4°C 37.9°F3.3°C 75% 6.0 mph WSW9.7 kmh WSW 10.7 mph17.2 kmh 30.40 in1029.5 mb 0.00 in0.0 mm 0.00 in0.0 mm 0.00 in0.0 mm
09:35 AM 45.5°F7.5°C 37.7°F3.2°C 74% 4.5 mph W7.2 kmh W 9.8 mph15.8 kmh 30.40 in1029.5 mb 0.00 in0.0 mm 0.00 in0.0 mm 0.00 in0.0 mm
09:40 AM 45.7°F7.6°C 37.9°F3.3°C 74% 6.9 mph WSW11.1 kmh WSW 9.8 mph15.8 kmh 30.40 in1029.5 mb 0.00 in0.0 mm 0.00 in0.0 mm 0.00 in0.0 mm
09:45 AM 46.2°F7.9°C 38.4°F3.6°C 74% 6.0 mph SW9.7 kmh SW 10.7 mph17.2 kmh 30.40 in1029.5 mb 0.00 in0.0 mm 0.00 in0.0 mm 0.00 in0.0 mm
09:50 AM 46.2°F7.9°C 38.1°F3.4°C 73% 3.8 mph WSW6.1 kmh WSW 10.7 mph17.2 kmh 30.40 in1029.5 mb 0.00 in0.0 mm 0.00 in0.0 mm 0.00 in0.0 mm
09:55 AM 46.0°F7.8°C 37.5°F3.1°C 72% 6.0 mph WSW9.7 kmh WSW 12.1 mph19.5 kmh 30.40 in1029.5 mb 0.00 in0.0 mm 0.00 in0.0 mm 0.00 in0.0 mm
10:00 AM 46.4°F8.0°C 37.9°F3.3°C 72% 9.2 mph WSW14.8 kmh WSW 13.6 mph21.9 kmh 30.41 in1029.8 mb 0.00 in0.0 mm 0.00 in0.0 mm 0.00 in0.0 mm
10:05 AM 46.6°F8.1°C 38.0°F3.3°C 72% 4.5 mph WNW7.2 kmh WNW 13.6 mph21.9 kmh 30.41 in1029.8 mb 0.00 in0.0 mm 0.00 in0.0 mm 0.00 in0.0 mm
10:10 AM 46.8°F8.2°C 37.9°F3.3°C 71% 4.5 mph WSW7.2 kmh WSW 13.6 mph21.9 kmh 30.41 in1029.8 mb 0.00 in0.0 mm 0.00 in0.0 mm 0.00 in0.0 mm
10:15 AM 47.5°F8.6°C 38.9°F3.8°C 72% 7.6 mph SW12.2 kmh SW 11.4 mph18.3 kmh 30.40 in1029.5 mb 0.00 in0.0 mm 0.00 in0.0 mm 0.00 in0.0 mm
10:20 AM 47.7°F8.7°C 38.7°F3.7°C 71% 5.4 mph W8.7 kmh W 11.4 mph18.3 kmh 30.41 in1029.8 mb 0.00 in0.0 mm 0.00 in0.0 mm 0.00 in0.0 mm
10:25 AM 48.0°F8.9°C 39.1°F3.9°C 71% 6.9 mph WNW11.1 kmh WNW 13.6 mph21.9 kmh 30.41 in1029.8 mb 0.00 in0.0 mm 0.00 in0.0 mm 0.00 in0.0 mm
10:30 AM 48.6°F9.2°C 39.2°F4.0°C 70% 9.8 mph WNW15.8 kmh WNW 13.6 mph21.9 kmh 30.41 in1029.8 mb 0.00 in0.0 mm 0.00 in0.0 mm 0.00 in0.0 mm
10:35 AM 48.4°F9.1°C 38.7°F3.7°C 69% 6.0 mph W9.7 kmh W 12.1 mph19.5 kmh 30.41 in1029.8 mb 0.00 in0.0 mm 0.00 in0.0 mm 0.00 in0.0 mm
10:40 AM 48.7°F9.3°C 39.0°F3.9°C 69% 6.0 mph W9.7 kmh W 12.1 mph19.5 kmh 30.41 in1029.8 mb 0.00 in0.0 mm 0.00 in0.0 mm 0.00 in0.0 mm
10:45 AM 49.1°F9.5°C 39.4°F4.1°C 69% 3.8 mph WNW6.1 kmh WNW 11.4 mph18.3 kmh 30.41 in1029.8 mb 0.00 in0.0 mm 0.00 in0.0 mm 0.00 in0.0 mm
10:50 AM 49.6°F9.8°C 39.5°F4.2°C 68% 5.4 mph WNW8.7 kmh WNW 12.1 mph19.5 kmh 30.41 in1029.8 mb 0.00 in0.0 mm 0.00 in0.0 mm 0.00 in0.0 mm
10:55 AM 50.0°F10.0°C 39.1°F3.9°C 66% 6.0 mph WNW9.7 kmh WNW 12.1 mph19.5 kmh 30.41 in1029.8 mb 0.00 in0.0 mm 0.00 in0.0 mm 0.00 in0.0 mm
11:00 AM 49.6°F9.8°C 39.1°F3.9°C 67% 6.0 mph WNW9.7 kmh WNW 13.6 mph21.9 kmh 30.41 in1029.8 mb 0.00 in0.0 mm 0.00 in0.0 mm 0.00 in0.0 mm
11:05 AM 49.5°F9.7°C 39.0°F3.9°C 67% 6.9 mph WNW11.1 kmh WNW 13.6 mph21.9 kmh 30.41 in1029.8 mb 0.00 in0.0 mm 0.00 in0.0 mm 0.00 in0.0 mm
11:10 AM 49.3°F9.6°C 38.8°F3.8°C 67% 9.2 mph NW14.8 kmh NW 13.6 mph21.9 kmh 30.41 in1029.8 mb 0.00 in0.0 mm 0.00 in0.0 mm 0.00 in0.0 mm
11:15 AM 49.5°F9.7°C 39.0°F3.9°C 67% 9.8 mph WNW15.8 kmh WNW 14.5 mph23.3 kmh 30.41 in1029.8 mb 0.00 in0.0 mm 0.00 in0.0 mm 0.00 in0.0 mm
11:20 AM 49.3°F9.6°C 38.8°F3.8°C 67% 5.4 mph WNW8.7 kmh WNW 14.5 mph23.3 kmh 30.41 in1029.8 mb 0.00 in0.0 mm 0.00 in0.0 mm 0.00 in0.0 mm
11:25 AM 49.3°F9.6°C 38.8°F3.8°C 67% 7.6 mph WNW12.2 kmh WNW 14.5 mph23.3 kmh 30.42 in1030.1 mb 0.00 in0.0 mm 0.00 in0.0 mm 0.00 in0.0 mm
11:30 AM 49.1°F9.5°C 38.6°F3.7°C 67% 7.6 mph WNW12.2 kmh WNW 13.6 mph21.9 kmh 30.42 in1030.1 mb 0.00 in0.0 mm 0.00 in0.0 mm 0.00 in0.0 mm
11:35 AM 48.7°F9.3°C 38.7°F3.7°C 68% 6.9 mph NW11.1 kmh NW 16.8 mph27.0 kmh 30.42 in1030.1 mb 0.00 in0.0 mm 0.00 in0.0 mm 0.00 in0.0 mm
11:40 AM 48.4°F9.1°C 38.3°F3.5°C 68% 7.6 mph NW12.2 kmh NW 16.8 mph27.0 kmh 30.42 in1030.1 mb 0.00 in0.0 mm 0.00 in0.0 mm 0.00 in0.0 mm
11:45 AM 48.4°F9.1°C 38.3°F3.5°C 68% 10.7 mph NW17.2 kmh NW 16.8 mph27.0 kmh 30.42 in1030.1 mb 0.00 in0.0 mm 0.00 in0.0 mm 0.00 in0.0 mm
11:50 AM 48.2°F9.0°C 38.1°F3.4°C 68% 6.9 mph NW11.1 kmh NW 16.8 mph27.0 kmh 30.42 in1030.1 mb 0.00 in0.0 mm 0.00 in0.0 mm 0.00 in0.0 mm
11:55 AM 48.4°F9.1°C 38.7°F3.7°C 69% 6.9 mph NW11.1 kmh NW 15.9 mph25.6 kmh 30.42 in1030.1 mb 0.00 in0.0 mm 0.00 in0.0 mm 0.00 in0.0 mm
12:00 PM 48.7°F9.3°C 39.0°F3.9°C 69% 8.3 mph WNW13.4 kmh WNW 11.4 mph18.3 kmh 30.42 in1030.1 mb 0.00 in0.0 mm 0.00 in0.0 mm 0.00 in0.0 mm
12:05 PM 49.1°F9.5°C 39.0°F3.9°C 68% 6.0 mph W9.7 kmh W 12.1 mph19.5 kmh 30.42 in1030.1 mb 0.00 in0.0 mm 0.00 in0.0 mm 0.00 in0.0 mm
12:10 PM 50.0°F10.0°C 39.5°F4.2°C 67% 9.2 mph W14.8 kmh W 13.6 mph21.9 kmh 30.42 in1030.1 mb 0.00 in0.0 mm 0.00 in0.0 mm 0.00 in0.0 mm
12:15 PM 50.7°F10.4°C 39.4°F4.1°C 65% 8.3 mph WSW13.4 kmh WSW 13.6 mph21.9 kmh 30.42 in1030.1 mb 0.00 in0.0 mm 0.00 in0.0 mm 0.00 in0.0 mm
12:20 PM 51.1°F10.6°C 39.7°F4.3°C 65% 6.0 mph SW9.7 kmh SW 13.0 mph20.9 kmh 30.42 in1030.1 mb 0.00 in0.0 mm 0.00 in0.0 mm 0.00 in0.0 mm
12:25 PM 50.9°F10.5°C 39.2°F4.0°C 64% 9.2 mph WSW14.8 kmh WSW 16.8 mph27.0 kmh 30.42 in1030.1 mb 0.00 in0.0 mm 0.00 in0.0 mm 0.00 in0.0 mm
12:30 PM 51.1°F10.6°C 39.3°F4.1°C 64% 7.6 mph WNW12.2 kmh WNW 16.8 mph27.0 kmh 30.42 in1030.1 mb 0.00 in0.0 mm 0.00 in0.0 mm 0.00 in0.0 mm
12:35 PM 50.7°F10.4°C 39.0°F3.9°C 64% 9.2 mph WNW14.8 kmh WNW 13.0 mph20.9 kmh 30.42 in1030.1 mb 0.00 in0.0 mm 0.00 in0.0 mm 0.00 in0.0 mm
12:40 PM 50.7°F10.4°C 39.4°F4.1°C 65% 5.4 mph W8.7 kmh W 13.0 mph20.9 kmh 30.42 in1030.1 mb 0.00 in0.0 mm 0.00 in0.0 mm 0.00 in0.0 mm
12:45 PM 52.2°F11.2°C 40.4°F4.7°C 64% 6.0 mph W9.7 kmh W 13.0 mph20.9 kmh 30.42 in1030.1 mb 0.00 in0.0 mm 0.00 in0.0 mm 0.00 in0.0 mm
12:50 PM 52.5°F11.4°C 39.9°F4.4°C 62% 9.2 mph WNW14.8 kmh WNW 14.5 mph23.3 kmh 30.42 in1030.1 mb 0.00 in0.0 mm 0.00 in0.0 mm 0.00 in0.0 mm
12:55 PM 52.5°F11.4°C 39.5°F4.2°C 61% 8.3 mph NW13.4 kmh NW 14.5 mph23.3 kmh 30.42 in1030.1 mb 0.00 in0.0 mm 0.00 in0.0 mm 0.00 in0.0 mm
01:00 PM 52.3°F11.3°C 38.9°F3.8°C 60% 8.3 mph WNW13.4 kmh WNW 15.9 mph25.6 kmh 30.42 in1030.1 mb 0.00 in0.0 mm 0.00 in0.0 mm 0.00 in0.0 mm
01:05 PM 52.2°F11.2°C 38.7°F3.7°C 60% 10.7 mph WNW17.2 kmh WNW 17.4 mph28.0 kmh 30.42 in1030.1 mb 0.00 in0.0 mm 0.00 in0.0 mm 0.00 in0.0 mm
01:10 PM 51.6°F10.9°C 38.6°F3.7°C 61% 10.7 mph NW17.2 kmh NW 17.4 mph28.0 kmh 30.41 in1029.8 mb 0.00 in0.0 mm 0.00 in0.0 mm 0.00 in0.0 mm
01:15 PM 52.3°F11.3°C 38.9°F3.8°C 60% 9.2 mph W14.8 kmh W 15.2 mph24.5 kmh 30.42 in1030.1 mb 0.00 in0.0 mm 0.00 in0.0 mm 0.00 in0.0 mm
01:20 PM 52.5°F11.4°C 37.7°F3.2°C 57% 9.2 mph WNW14.8 kmh WNW 15.2 mph24.5 kmh 30.41 in1029.8 mb 0.00 in0.0 mm 0.00 in0.0 mm 0.00 in0.0 mm
01:25 PM 53.4°F11.9°C 39.0°F3.9°C 58% 10.7 mph NW17.2 kmh NW 16.8 mph27.0 kmh 30.41 in1029.8 mb 0.00 in0.0 mm 0.00 in0.0 mm 0.00 in0.0 mm
01:30 PM 54.1°F12.3°C 37.9°F3.3°C 54% 7.6 mph WNW12.2 kmh WNW 16.8 mph27.0 kmh 30.41 in1029.8 mb 0.00 in0.0 mm 0.00 in0.0 mm 0.00 in0.0 mm
01:35 PM 54.1°F12.3°C 36.9°F2.7°C 52% 1.6 mph W2.6 kmh W 13.6 mph21.9 kmh 30.41 in1029.8 mb 0.00 in0.0 mm 0.00 in0.0 mm 0.00 in0.0 mm
01:40 PM 54.1°F12.3°C 36.9°F2.7°C 52% 9.2 mph W14.8 kmh W 13.6 mph21.9 kmh 30.41 in1029.8 mb 0.00 in0.0 mm 0.00 in0.0 mm 0.00 in0.0 mm
01:45 PM 54.7°F12.6°C 37.4°F3.0°C 52% 13.6 mph W21.9 kmh W 21.3 mph34.3 kmh 30.41 in1029.8 mb 0.00 in0.0 mm 0.00 in0.0 mm 0.00 in0.0 mm
01:50 PM 54.7°F12.6°C 36.9°F2.7°C 51% 10.7 mph WNW17.2 kmh WNW 21.3 mph34.3 kmh 30.41 in1029.8 mb 0.00 in0.0 mm 0.00 in0.0 mm 0.00 in0.0 mm
01:55 PM 54.5°F12.5°C 38.2°F3.4°C 54% 6.9 mph WNW11.1 kmh WNW 18.3 mph29.5 kmh 30.41 in1029.8 mb 0.00 in0.0 mm 0.00 in0.0 mm 0.00 in0.0 mm
02:00 PM 54.5°F12.5°C 37.7°F3.2°C 53% 11.4 mph WSW18.3 kmh WSW 18.3 mph29.5 kmh 30.41 in1029.8 mb 0.00 in0.0 mm 0.00 in0.0 mm 0.00 in0.0 mm
02:05 PM 54.3°F12.4°C 38.5°F3.6°C 55% 7.6 mph WSW12.2 kmh WSW 18.3 mph29.5 kmh 30.41 in1029.8 mb 0.00 in0.0 mm 0.00 in0.0 mm 0.00 in0.0 mm
02:10 PM 54.9°F12.7°C 39.5°F4.2°C 56% 12.1 mph W19.5 kmh W 18.3 mph29.5 kmh 30.41 in1029.8 mb 0.00 in0.0 mm 0.00 in0.0 mm 0.00 in0.0 mm
02:15 PM 55.2°F12.9°C 39.8°F4.3°C 56% 9.8 mph NW15.8 kmh NW 19.7 mph31.7 kmh 30.41 in1029.8 mb 0.00 in0.0 mm 0.00 in0.0 mm 0.00 in0.0 mm
02:20 PM 54.7°F12.6°C 39.3°F4.1°C 56% 10.7 mph NW17.2 kmh NW 21.3 mph34.3 kmh 30.40 in1029.5 mb 0.00 in0.0 mm 0.00 in0.0 mm 0.00 in0.0 mm
02:25 PM 54.1°F12.3°C 39.3°F4.1°C 57% 8.3 mph NW13.4 kmh NW 21.3 mph34.3 kmh 30.40 in1029.5 mb 0.00 in0.0 mm 0.00 in0.0 mm 0.00 in0.0 mm
02:30 PM 54.3°F12.4°C 39.4°F4.1°C 57% 8.3 mph WNW13.4 kmh WNW 18.3 mph29.5 kmh 30.40 in1029.5 mb 0.00 in0.0 mm 0.00 in0.0 mm 0.00 in0.0 mm
02:35 PM 54.9°F12.7°C 39.9°F4.4°C 57% 11.4 mph NW18.3 kmh NW 18.3 mph29.5 kmh 30.40 in1029.5 mb 0.00 in0.0 mm 0.00 in0.0 mm 0.00 in0.0 mm
02:40 PM 55.4°F13.0°C 40.0°F4.4°C 56% 6.0 mph NW9.7 kmh NW 15.9 mph25.6 kmh 30.40 in1029.5 mb 0.00 in0.0 mm 0.00 in0.0 mm 0.00 in0.0 mm
02:45 PM 55.4°F13.0°C 38.6°F3.7°C 53% 10.7 mph NW17.2 kmh NW 15.9 mph25.6 kmh 30.40 in1029.5 mb 0.00 in0.0 mm 0.00 in0.0 mm 0.00 in0.0 mm
02:50 PM 54.3°F12.4°C 37.1°F2.8°C 52% 10.7 mph NW17.2 kmh NW 14.5 mph23.3 kmh 30.40 in1029.5 mb 0.00 in0.0 mm 0.00 in0.0 mm 0.00 in0.0 mm
02:55 PM 53.6°F12.0°C 36.4°F2.4°C 52% 8.3 mph WNW13.4 kmh WNW 14.5 mph23.3 kmh 30.41 in1029.8 mb 0.00 in0.0 mm 0.00 in0.0 mm 0.00 in0.0 mm
03:00 PM 53.1°F11.7°C 36.4°F2.4°C 53% 9.8 mph WNW15.8 kmh WNW 15.2 mph24.5 kmh 30.40 in1029.5 mb 0.00 in0.0 mm 0.00 in0.0 mm 0.00 in0.0 mm
03:05 PM 53.1°F11.7°C 36.9°F2.7°C 54% 7.6 mph NW12.2 kmh NW 15.2 mph24.5 kmh 30.41 in1029.8 mb 0.00 in0.0 mm 0.00 in0.0 mm 0.00 in0.0 mm
03:10 PM 53.4°F11.9°C 37.2°F2.9°C 54% 6.9 mph WNW11.1 kmh WNW 16.8 mph27.0 kmh 30.40 in1029.5 mb 0.00 in0.0 mm 0.00 in0.0 mm 0.00 in0.0 mm
03:15 PM 53.6°F12.0°C 36.4°F2.4°C 52% 9.8 mph WNW15.8 kmh WNW 16.8 mph27.0 kmh 30.40 in1029.5 mb 0.00 in0.0 mm 0.00 in0.0 mm 0.00 in0.0 mm
03:20 PM 53.1°F11.7°C 36.4°F2.4°C 53% 6.0 mph NW9.7 kmh NW 15.9 mph25.6 kmh 30.40 in1029.5 mb 0.00 in0.0 mm 0.00 in0.0 mm 0.00 in0.0 mm
03:25 PM 52.9°F11.6°C 36.7°F2.6°C 54% 8.3 mph WNW13.4 kmh WNW 14.5 mph23.3 kmh 30.40 in1029.5 mb 0.00 in0.0 mm 0.00 in0.0 mm 0.00 in0.0 mm
03:30 PM 52.5°F11.4°C 35.9°F2.2°C 53% 8.3 mph W13.4 kmh W 16.8 mph27.0 kmh 30.40 in1029.5 mb 0.00 in0.0 mm 0.00 in0.0 mm 0.00 in0.0 mm
03:35 PM 52.5°F11.4°C 36.8°F2.7°C 55% 3.1 mph W5.0 kmh W 16.8 mph27.0 kmh 30.40 in1029.5 mb 0.00 in0.0 mm 0.00 in0.0 mm 0.00 in0.0 mm
03:40 PM 52.9°F11.6°C 37.6°F3.1°C 56% 10.7 mph WNW17.2 kmh WNW 16.8 mph27.0 kmh 30.40 in1029.5 mb 0.00 in0.0 mm 0.00 in0.0 mm 0.00 in0.0 mm
03:45 PM 52.9°F11.6°C 37.6°F3.1°C 56% 9.2 mph W14.8 kmh W 16.8 mph27.0 kmh 30.40 in1029.5 mb 0.00 in0.0 mm 0.00 in0.0 mm 0.00 in0.0 mm
03:50 PM 52.9°F11.6°C 37.6°F3.1°C 56% 8.3 mph WNW13.4 kmh WNW 16.8 mph27.0 kmh 30.40 in1029.5 mb 0.00 in0.0 mm 0.00 in0.0 mm 0.00 in0.0 mm
03:55 PM 52.7°F11.5°C 38.3°F3.5°C 58% 11.4 mph NW18.3 kmh NW 18.3 mph29.5 kmh 30.40 in1029.5 mb 0.00 in0.0 mm 0.00 in0.0 mm 0.00 in0.0 mm
04:00 PM 52.3°F11.3°C 38.4°F3.6°C 59% 12.1 mph NW19.5 kmh NW 18.3 mph29.5 kmh 30.40 in1029.5 mb 0.00 in0.0 mm 0.00 in0.0 mm 0.00 in0.0 mm
04:05 PM 52.9°F11.6°C 39.8°F4.3°C 61% 9.8 mph NW15.8 kmh NW 18.3 mph29.5 kmh 30.40 in1029.5 mb 0.00 in0.0 mm 0.00 in0.0 mm 0.00 in0.0 mm
04:10 PM 53.1°F11.7°C 39.6°F4.2°C 60% 4.5 mph NW7.2 kmh NW 15.9 mph25.6 kmh 30.40 in1029.5 mb 0.00 in0.0 mm 0.00 in0.0 mm 0.00 in0.0 mm
04:15 PM 53.4°F11.9°C 39.5°F4.2°C 59% 6.0 mph WNW9.7 kmh WNW 15.9 mph25.6 kmh 30.41 in1029.8 mb 0.00 in0.0 mm 0.00 in0.0 mm 0.00 in0.0 mm
04:20 PM 54.1°F12.3°C 39.7°F4.3°C 58% 11.4 mph WNW18.3 kmh WNW 17.4 mph28.0 kmh 30.41 in1029.8 mb 0.00 in0.0 mm 0.00 in0.0 mm 0.00 in0.0 mm
04:25 PM 54.5°F12.5°C 38.2°F3.4°C 54% 6.0 mph WNW9.7 kmh WNW 17.4 mph28.0 kmh 30.41 in1029.8 mb 0.00 in0.0 mm 0.00 in0.0 mm 0.00 in0.0 mm
04:30 PM 55.0°F12.8°C 38.2°F3.4°C 53% 9.2 mph NW14.8 kmh NW 16.8 mph27.0 kmh 30.41 in1029.8 mb 0.00 in0.0 mm 0.00 in0.0 mm 0.00 in0.0 mm
04:35 PM 55.4°F13.0°C 37.1°F2.8°C 50% 6.0 mph NW9.7 kmh NW 14.5 mph23.3 kmh 30.41 in1029.8 mb 0.00 in0.0 mm 0.00 in0.0 mm 0.00 in0.0 mm
04:40 PM 55.6°F13.1°C 37.2°F2.9°C 50% 9.2 mph NW14.8 kmh NW 14.5 mph23.3 kmh 30.41 in1029.8 mb 0.00 in0.0 mm 0.00 in0.0 mm 0.00 in0.0 mm
04:45 PM 55.9°F13.3°C 37.1°F2.8°C 49% 6.0 mph NW9.7 kmh NW 11.4 mph18.3 kmh 30.41 in1029.8 mb 0.00 in0.0 mm 0.00 in0.0 mm 0.00 in0.0 mm
04:50 PM 56.5°F13.6°C 37.0°F2.8°C 48% 7.6 mph NW12.2 kmh NW 12.1 mph19.5 kmh 30.41 in1029.8 mb 0.00 in0.0 mm 0.00 in0.0 mm 0.00 in0.0 mm
04:55 PM 56.7°F13.7°C 36.1°F2.3°C 46% 6.9 mph NW11.1 kmh NW 12.1 mph19.5 kmh 30.41 in1029.8 mb 0.00 in0.0 mm 0.00 in0.0 mm 0.00 in0.0 mm
05:00 PM 56.7°F13.7°C 36.1°F2.3°C 46% 9.8 mph NW15.8 kmh NW 13.6 mph21.9 kmh 30.42 in1030.1 mb 0.00 in0.0 mm 0.00 in0.0 mm 0.00 in0.0 mm
05:05 PM 56.7°F13.7°C 35.6°F2.0°C 45% 5.4 mph NW8.7 kmh NW 13.6 mph21.9 kmh 30.42 in1030.1 mb 0.00 in0.0 mm 0.00 in0.0 mm 0.00 in0.0 mm
05:10 PM 57.2°F14.0°C 33.7°F0.9°C 41% 3.8 mph NNW6.1 kmh NNW 11.4 mph18.3 kmh 30.42 in1030.1 mb 0.00 in0.0 mm 0.00 in0.0 mm 0.00 in0.0 mm
05:15 PM 57.2°F14.0°C 32.5°F0.3°C 39% 3.1 mph NNW5.0 kmh NNW 9.8 mph15.8 kmh 30.41 in1029.8 mb 0.00 in0.0 mm 0.00 in0.0 mm 0.00 in0.0 mm
05:20 PM 57.0°F13.9°C 34.2°F1.2°C 42% 7.6 mph NW12.2 kmh NW 9.8 mph15.8 kmh 30.42 in1030.1 mb 0.00 in0.0 mm 0.00 in0.0 mm 0.00 in0.0 mm
05:25 PM 56.5°F13.6°C 35.4°F1.9°C 45% 9.2 mph NW14.8 kmh NW 15.2 mph24.5 kmh 30.42 in1030.1 mb 0.00 in0.0 mm 0.00 in0.0 mm 0.00 in0.0 mm
05:30 PM 55.4°F13.0°C 37.6°F3.1°C 51% 10.7 mph NW17.2 kmh NW 15.9 mph25.6 kmh 30.41 in1029.8 mb 0.00 in0.0 mm 0.00 in0.0 mm 0.00 in0.0 mm
05:35 PM 54.7°F12.6°C 38.4°F3.6°C 54% 10.7 mph NW17.2 kmh NW 15.9 mph25.6 kmh 30.42 in1030.1 mb 0.00 in0.0 mm 0.00 in0.0 mm 0.00 in0.0 mm
05:40 PM 54.3°F12.4°C 39.0°F3.9°C 56% 8.3 mph NW13.4 kmh NW 15.9 mph25.6 kmh 30.42 in1030.1 mb 0.00 in0.0 mm 0.00 in0.0 mm 0.00 in0.0 mm
05:45 PM 54.5°F12.5°C 39.6°F4.2°C 57% 9.2 mph NW14.8 kmh NW 15.9 mph25.6 kmh 30.43 in1030.5 mb 0.00 in0.0 mm 0.00 in0.0 mm 0.00 in0.0 mm
05:50 PM 54.5°F12.5°C 38.2°F3.4°C 54% 10.7 mph NW17.2 kmh NW 15.2 mph24.5 kmh 30.42 in1030.1 mb 0.00 in0.0 mm 0.00 in0.0 mm 0.00 in0.0 mm
05:55 PM 54.5°F12.5°C 38.2°F3.4°C 54% 8.3 mph NW13.4 kmh NW 15.2 mph24.5 kmh 30.42 in1030.1 mb 0.00 in0.0 mm 0.00 in0.0 mm 0.00 in0.0 mm
06:00 PM 54.3°F12.4°C 38.0°F3.3°C 54% 9.8 mph NW15.8 kmh NW 14.5 mph23.3 kmh 30.43 in1030.5 mb 0.00 in0.0 mm 0.00 in0.0 mm 0.00 in0.0 mm
06:05 PM 54.3°F12.4°C 39.0°F3.9°C 56% 7.6 mph NW12.2 kmh NW 14.5 mph23.3 kmh 30.43 in1030.5 mb 0.00 in0.0 mm 0.00 in0.0 mm 0.00 in0.0 mm
06:10 PM 54.1°F12.3°C 38.3°F3.5°C 55% 5.4 mph NW8.7 kmh NW 14.5 mph23.3 kmh 30.43 in1030.5 mb 0.00 in0.0 mm 0.00 in0.0 mm 0.00 in0.0 mm
06:15 PM 54.1°F12.3°C 38.3°F3.5°C 55% 5.4 mph NW8.7 kmh NW 12.1 mph19.5 kmh 30.43 in1030.5 mb 0.00 in0.0 mm 0.00 in0.0 mm 0.00 in0.0 mm
06:20 PM 54.1°F12.3°C 38.3°F3.5°C 55% 8.3 mph NW13.4 kmh NW 12.1 mph19.5 kmh 30.43 in1030.5 mb 0.00 in0.0 mm 0.00 in0.0 mm 0.00 in0.0 mm
06:25 PM 54.0°F12.2°C 36.7°F2.6°C 52% 4.5 mph NW7.2 kmh NW 12.1 mph19.5 kmh 30.43 in1030.5 mb 0.00 in0.0 mm 0.00 in0.0 mm 0.00 in0.0 mm
06:30 PM 54.0°F12.2°C 36.7°F2.6°C 52% 6.0 mph NW9.7 kmh NW 12.1 mph19.5 kmh 30.43 in1030.5 mb 0.00 in0.0 mm 0.00 in0.0 mm 0.00 in0.0 mm
06:35 PM 54.0°F12.2°C 36.3°F2.4°C 51% 7.6 mph NNW12.2 kmh NNW 11.4 mph18.3 kmh 30.44 in1030.8 mb 0.00 in0.0 mm 0.00 in0.0 mm 0.00 in0.0 mm
06:40 PM 53.6°F12.0°C 35.9°F2.2°C 51% 4.5 mph NW7.2 kmh NW 11.4 mph18.3 kmh 30.44 in1030.8 mb 0.00 in0.0 mm 0.00 in0.0 mm 0.00 in0.0 mm
06:45 PM 53.4°F11.9°C 35.8°F2.1°C 51% 8.3 mph NNW13.4 kmh NNW 13.0 mph20.9 kmh 30.44 in1030.8 mb 0.00 in0.0 mm 0.00 in0.0 mm 0.00 in0.0 mm
06:50 PM 52.9°F11.6°C 35.7°F2.1°C 52% 6.0 mph NNW9.7 kmh NNW 13.0 mph20.9 kmh 30.44 in1030.8 mb 0.00 in0.0 mm 0.00 in0.0 mm 0.00 in0.0 mm
06:55 PM 52.3°F11.3°C 35.7°F2.1°C 53% 4.5 mph NW7.2 kmh NW 13.0 mph20.9 kmh 30.44 in1030.8 mb 0.00 in0.0 mm 0.00 in0.0 mm 0.00 in0.0 mm
07:00 PM 52.0°F11.1°C 35.4°F1.9°C 53% 6.9 mph NW11.1 kmh NW 10.7 mph17.2 kmh 30.44 in1030.8 mb 0.00 in0.0 mm 0.00 in0.0 mm 0.00 in0.0 mm
07:05 PM 51.4°F10.8°C 35.4°F1.9°C 54% 9.2 mph NNW14.8 kmh NNW 12.1 mph19.5 kmh 30.44 in1030.8 mb 0.00 in0.0 mm 0.00 in0.0 mm 0.00 in0.0 mm
07:10 PM 50.9°F10.5°C 35.3°F1.8°C 55% 3.8 mph N6.1 kmh N 12.1 mph19.5 kmh 30.45 in1031.2 mb 0.00 in0.0 mm 0.00 in0.0 mm 0.00 in0.0 mm
07:15 PM 50.4°F10.2°C 34.8°F1.6°C 55% 3.8 mph N6.1 kmh N 12.1 mph19.5 kmh 30.45 in1031.2 mb 0.00 in0.0 mm 0.00 in0.0 mm 0.00 in0.0 mm
07:20 PM 49.8°F9.9°C 34.8°F1.6°C 56% 2.2 mph N3.5 kmh N 9.8 mph15.8 kmh 30.45 in1031.2 mb 0.00 in0.0 mm 0.00 in0.0 mm 0.00 in0.0 mm
07:25 PM 49.3°F9.6°C 34.3°F1.3°C 56% 3.1 mph N5.0 kmh N 9.8 mph15.8 kmh 30.46 in1031.5 mb 0.00 in0.0 mm 0.00 in0.0 mm 0.00 in0.0 mm
07:30 PM 49.1°F9.5°C 34.1°F1.2°C 56% 1.6 mph N2.6 kmh N 7.6 mph12.2 kmh 30.46 in1031.5 mb 0.00 in0.0 mm 0.00 in0.0 mm 0.00 in0.0 mm
07:35 PM 48.9°F9.4°C 33.9°F1.1°C 56% 1.6 mph NW2.6 kmh NW 4.5 mph7.2 kmh 30.46 in1031.5 mb 0.00 in0.0 mm 0.00 in0.0 mm 0.00 in0.0 mm
07:40 PM 48.7°F9.3°C 34.2°F1.2°C 57% 0.7 mph W1.1 kmh W 3.1 mph5.0 kmh 30.46 in1031.5 mb 0.00 in0.0 mm 0.00 in0.0 mm 0.00 in0.0 mm
07:45 PM 48.4°F9.1°C 35.6°F2.0°C 61% 2.2 mph WSW3.5 kmh WSW 3.8 mph6.1 kmh 30.47 in1031.8 mb 0.00 in0.0 mm 0.00 in0.0 mm 0.00 in0.0 mm
07:50 PM 48.2°F9.0°C 36.2°F2.3°C 63% 0.7 mph WSW1.1 kmh WSW 3.8 mph6.1 kmh 30.47 in1031.8 mb 0.00 in0.0 mm 0.00 in0.0 mm 0.00 in0.0 mm
07:55 PM 47.8°F8.8°C 36.7°F2.6°C 65% 1.6 mph WSW2.6 kmh WSW 3.8 mph6.1 kmh 30.47 in1031.8 mb 0.00 in0.0 mm 0.00 in0.0 mm 0.00 in0.0 mm
08:00 PM 47.7°F8.7°C 36.9°F2.7°C 66% 1.6 mph SSW2.6 kmh SSW 3.8 mph6.1 kmh 30.47 in1031.8 mb 0.00 in0.0 mm 0.00 in0.0 mm 0.00 in0.0 mm
08:05 PM 47.7°F8.7°C 36.9°F2.7°C 66% 1.6 mph SSE2.6 kmh SSE 3.8 mph6.1 kmh 30.47 in1031.8 mb 0.00 in0.0 mm 0.00 in0.0 mm 0.00 in0.0 mm
08:10 PM 46.9°F8.3°C 36.6°F2.6°C 67% 1.6 mph S2.6 kmh S 3.8 mph6.1 kmh 30.48 in1032.2 mb 0.00 in0.0 mm 0.00 in0.0 mm 0.00 in0.0 mm
08:15 PM 46.6°F8.1°C 36.6°F2.6°C 68% 3.8 mph SW6.1 kmh SW 6.0 mph9.7 kmh 30.47 in1031.8 mb 0.00 in0.0 mm 0.00 in0.0 mm 0.00 in0.0 mm
08:20 PM 46.2°F7.9°C 36.6°F2.6°C 69% 2.2 mph SW3.5 kmh SW 6.0 mph9.7 kmh 30.47 in1031.8 mb 0.00 in0.0 mm 0.00 in0.0 mm 0.00 in0.0 mm
08:25 PM 46.0°F7.8°C 36.8°F2.7°C 70% 1.6 mph SW2.6 kmh SW 6.0 mph9.7 kmh 30.47 in1031.8 mb 0.00 in0.0 mm 0.00 in0.0 mm 0.00 in0.0 mm
08:30 PM 45.7°F7.6°C 36.8°F2.7°C 71% 2.2 mph SW3.5 kmh SW 4.5 mph7.2 kmh 30.47 in1031.8 mb 0.00 in0.0 mm 0.00 in0.0 mm 0.00 in0.0 mm
08:35 PM 45.5°F7.5°C 36.7°F2.6°C 71% 2.2 mph SW3.5 kmh SW 4.5 mph7.2 kmh 30.48 in1032.2 mb 0.00 in0.0 mm 0.00 in0.0 mm 0.00 in0.0 mm
08:40 PM 45.1°F7.3°C 36.3°F2.4°C 71% 3.1 mph WSW5.0 kmh WSW 5.4 mph8.7 kmh 30.47 in1031.8 mb 0.00 in0.0 mm 0.00 in0.0 mm 0.00 in0.0 mm
08:45 PM 45.0°F7.2°C 36.5°F2.5°C 72% 1.6 mph WSW2.6 kmh WSW 5.4 mph8.7 kmh 30.47 in1031.8 mb 0.00 in0.0 mm 0.00 in0.0 mm 0.00 in0.0 mm
08:50 PM 44.8°F7.1°C 36.3°F2.4°C 72% 3.1 mph W5.0 kmh W 3.8 mph6.1 kmh 30.47 in1031.8 mb 0.00 in0.0 mm 0.00 in0.0 mm 0.00 in0.0 mm
08:55 PM 44.6°F7.0°C 36.1°F2.3°C 72% 1.6 mph WNW2.6 kmh WNW 3.8 mph6.1 kmh 30.47 in1031.8 mb 0.00 in0.0 mm 0.00 in0.0 mm 0.00 in0.0 mm
09:00 PM 44.4°F6.9°C 36.7°F2.6°C 74% 1.6 mph WNW2.6 kmh WNW 3.8 mph6.1 kmh 30.48 in1032.2 mb 0.00 in0.0 mm 0.00 in0.0 mm 0.00 in0.0 mm
09:05 PM 44.1°F6.7°C 36.3°F2.4°C 74% 0.7 mph WNW1.1 kmh WNW 3.1 mph5.0 kmh 30.48 in1032.2 mb 0.00 in0.0 mm 0.00 in0.0 mm 0.00 in0.0 mm
09:10 PM 43.7°F6.5°C 36.0°F2.2°C 74% 1.6 mph NW2.6 kmh NW 2.2 mph3.5 kmh 30.48 in1032.2 mb 0.00 in0.0 mm 0.00 in0.0 mm 0.00 in0.0 mm
09:15 PM 43.2°F6.2°C 35.8°F2.1°C 75% 0.7 mph N1.1 kmh N 2.2 mph3.5 kmh 30.48 in1032.2 mb 0.00 in0.0 mm 0.00 in0.0 mm 0.00 in0.0 mm
09:20 PM 42.8°F6.0°C 35.8°F2.1°C 76% Calm Calm 2.2 mph3.5 kmh 30.48 in1032.2 mb 0.00 in0.0 mm 0.00 in0.0 mm 0.00 in0.0 mm
09:25 PM 42.4°F5.8°C 36.1°F2.3°C 78% 2.2 mph E3.5 kmh E 3.8 mph6.1 kmh 30.48 in1032.2 mb 0.00 in0.0 mm 0.00 in0.0 mm 0.00 in0.0 mm
09:30 PM 42.3°F5.7°C 36.2°F2.3°C 79% 1.6 mph E2.6 kmh E 3.8 mph6.1 kmh 30.48 in1032.2 mb 0.00 in0.0 mm 0.00 in0.0 mm 0.00 in0.0 mm
09:35 PM 42.4°F5.8°C 36.7°F2.6°C 80% 1.6 mph SE2.6 kmh SE 3.8 mph6.1 kmh 30.49 in1032.5 mb 0.00 in0.0 mm 0.00 in0.0 mm 0.00 in0.0 mm
09:40 PM 42.3°F5.7°C 36.5°F2.5°C 80% 0.7 mph E1.1 kmh E 3.8 mph6.1 kmh 30.49 in1032.5 mb 0.00 in0.0 mm 0.00 in0.0 mm 0.00 in0.0 mm
09:45 PM 41.7°F5.4°C 36.0°F2.2°C 80% 0.7 mph NNE1.1 kmh NNE 3.1 mph5.0 kmh 30.48 in1032.2 mb 0.00 in0.0 mm 0.00 in0.0 mm 0.00 in0.0 mm
09:50 PM 41.5°F5.3°C 35.8°F2.1°C 80% 0.7 mph NE1.1 kmh NE 1.6 mph2.6 kmh 30.49 in1032.5 mb 0.00 in0.0 mm 0.00 in0.0 mm 0.00 in0.0 mm
09:55 PM 41.4°F5.2°C 36.0°F2.2°C 81% 1.6 mph ENE2.6 kmh ENE 3.1 mph5.0 kmh 30.48 in1032.2 mb 0.00 in0.0 mm 0.00 in0.0 mm 0.00 in0.0 mm
10:00 PM 41.2°F5.1°C 36.1°F2.3°C 82% 0.7 mph ESE1.1 kmh ESE 3.1 mph5.0 kmh 30.49 in1032.5 mb 0.00 in0.0 mm 0.00 in0.0 mm 0.00 in0.0 mm
10:05 PM 41.2°F5.1°C 36.1°F2.3°C 82% 1.6 mph S2.6 kmh S 3.1 mph5.0 kmh 30.48 in1032.2 mb 0.00 in0.0 mm 0.00 in0.0 mm 0.00 in0.0 mm
10:10 PM 41.4°F5.2°C 36.6°F2.6°C 83% 2.2 mph SSW3.5 kmh SSW 3.1 mph5.0 kmh 30.48 in1032.2 mb 0.00 in0.0 mm 0.00 in0.0 mm 0.00 in0.0 mm
10:15 PM 40.8°F4.9°C 36.4°F2.4°C 84% 0.7 mph NW1.1 kmh NW 3.1 mph5.0 kmh 30.48 in1032.2 mb 0.00 in0.0 mm 0.00 in0.0 mm 0.00 in0.0 mm
10:20 PM 40.3°F4.6°C 35.8°F2.1°C 84% Calm Calm 3.1 mph5.0 kmh 30.48 in1032.2 mb 0.00 in0.0 mm 0.00 in0.0 mm 0.00 in0.0 mm
10:25 PM 39.7°F4.3°C 35.3°F1.8°C 84% 1.6 mph N2.6 kmh N 2.2 mph3.5 kmh 30.48 in1032.2 mb 0.00 in0.0 mm 0.00 in0.0 mm 0.00 in0.0 mm
10:30 PM 39.2°F4.0°C 34.8°F1.6°C 84% 1.6 mph NNE2.6 kmh NNE 3.8 mph6.1 kmh 30.49 in1032.5 mb 0.00 in0.0 mm 0.00 in0.0 mm 0.00 in0.0 mm
10:35 PM 38.7°F3.7°C 34.5°F1.4°C 85% Calm Calm 3.8 mph6.1 kmh 30.49 in1032.5 mb 0.00 in0.0 mm 0.00 in0.0 mm 0.00 in0.0 mm
10:40 PM 38.3°F3.5°C 34.2°F1.2°C 85% Calm Calm 3.1 mph5.0 kmh 30.49 in1032.5 mb 0.00 in0.0 mm 0.00 in0.0 mm 0.00 in0.0 mm
10:45 PM 37.9°F3.3°C 34.1°F1.2°C 86% Calm Calm 2.2 mph3.5 kmh 30.50 in1032.8 mb 0.00 in0.0 mm 0.00 in0.0 mm 0.00 in0.0 mm
10:50 PM 37.8°F3.2°C 34.0°F1.1°C 86% 0.7 mph N1.1 kmh N 2.2 mph3.5 kmh 30.49 in1032.5 mb 0.00 in0.0 mm 0.00 in0.0 mm 0.00 in0.0 mm
10:55 PM 37.4°F3.0°C 33.6°F0.9°C 86% 0.7 mph N1.1 kmh N 2.2 mph3.5 kmh 30.50 in1032.8 mb 0.00 in0.0 mm 0.00 in0.0 mm 0.00 in0.0 mm
11:00 PM 37.2°F2.9°C 32.5°F0.3°C 83% Calm Calm 1.6 mph2.6 kmh 30.49 in1032.5 mb 0.00 in0.0 mm 0.00 in0.0 mm 0.00 in0.0 mm
11:05 PM 37.2°F2.9°C 32.5°F0.3°C 83% 1.6 mph NE2.6 kmh NE 2.2 mph3.5 kmh 30.50 in1032.8 mb 0.00 in0.0 mm 0.00 in0.0 mm 0.00 in0.0 mm
11:10 PM 37.4°F3.0°C 34.2°F1.2°C 88% 0.7 mph E1.1 kmh E 3.1 mph5.0 kmh 30.49 in1032.5 mb 0.00 in0.0 mm 0.00 in0.0 mm 0.00 in0.0 mm
11:15 PM 37.2°F2.9°C 32.8°F0.4°C 84% 0.7 mph E1.1 kmh E 3.1 mph5.0 kmh 30.49 in1032.5 mb 0.00 in0.0 mm 0.00 in0.0 mm 0.00 in0.0 mm
11:20 PM 37.0°F2.8°C 32.7°F0.4°C 84% Calm Calm 2.2 mph3.5 kmh 30.49 in1032.5 mb 0.00 in0.0 mm 0.00 in0.0 mm 0.00 in0.0 mm
11:25 PM 36.9°F2.7°C 32.5°F0.3°C 84% Calm Calm 2.2 mph3.5 kmh 30.49 in1032.5 mb 0.00 in0.0 mm 0.00 in0.0 mm 0.00 in0.0 mm
11:30 PM 36.9°F2.7°C 32.5°F0.3°C 84% Calm Calm 1.6 mph2.6 kmh 30.50 in1032.8 mb 0.00 in0.0 mm 0.00 in0.0 mm 0.00 in0.0 mm
11:35 PM 36.5°F2.5°C 32.1°F0.1°C 84% 0.7 mph NE1.1 kmh NE 2.2 mph3.5 kmh 30.50 in1032.8 mb 0.00 in0.0 mm 0.00 in0.0 mm 0.00 in0.0 mm
11:40 PM 36.3°F2.4°C 32.0°F0.0°C 84% Calm Calm 2.2 mph3.5 kmh 30.49 in1032.5 mb 0.00 in0.0 mm 0.00 in0.0 mm 0.00 in0.0 mm
11:45 PM 36.0°F2.2°C 31.6°F-0.2°C 84% 1.6 mph N2.6 kmh N 2.2 mph3.5 kmh 30.50 in1032.8 mb 0.00 in0.0 mm 0.00 in0.0 mm 0.00 in0.0 mm
11:50 PM 35.8°F2.1°C 31.4°F-0.3°C 84% 0.7 mph NNE1.1 kmh NNE 2.2 mph3.5 kmh 30.50 in1032.8 mb 0.00 in0.0 mm 0.00 in0.0 mm 0.00 in0.0 mm
11:55 PM 35.8°F2.1°C 31.7°F-0.2°C 85% 2.2 mph E3.5 kmh E 3.1 mph5.0 kmh 30.50 in1032.8 mb 0.00 in0.0 mm 0.00 in0.0 mm 0.00 in0.0 mm